Weather History for KTSP - June, 2014

Change the Weather History Date:

Friday, June 13, 2014

  Actual Average Record
Temperature  
Mean Temperature 62 °F -  
Max Temperature 73 °F 78 °F 87 °F (2015)
Min Temperature 50 °F 50 °F 50 °F (2011)
Degree Days  
Heating Degree Days 4    
Growing Degree Days 12 (Base 50)    
Moisture  
Dew Point 34 °F    
Average Humidity 35    
Maximum Humidity 66    
Minimum Humidity 19    
Precipitation  
Precipitation 0.00 in - - ()
Sea Level Pressure  
Sea Level Pressure 30.01 in    
Wind  
Wind Speed 16 mph (WNW)    
Max Wind Speed 28 mph    
Max Gust Speed 36 mph    
Visibility 9 miles    
Events      
Averages and records for this station are not official NWS values.
T = Trace of Precipitation, MM = Missing Value Source: NWS Daily Summary

Daily Weather History Graph

Daily Weather History Graph

Search for Another Location

Airport or City:

Trip Planner

Search our weather history database for the weather conditions in past years. The results will help you decide how hot, cold, wet, or windy it might be!

Date:

Astronomy

Jun. 13, 2014 Rise Set
Actual Time 5:38 AM PDT 8:09 PM PDT
Civil Twilight 5:09 AM PDT 8:38 PM PDT
Nautical Twilight 4:32 AM PDT 9:15 PM PDT
Astronomical Twilight 3:51 AM PDT 9:56 PM PDT
Moon 8:47 PM PDT (6/13) 6:20 AM PDT (6/13)
Length of Visible Light 15h 29m
Length of Day
14h 30m
Waxing Gibbous, 99% of the Moon is Illuminated
Jun 13
Waxing Gibbous
Jun 19
Last Quarter
Jun 27
New
Jul 5
First Quarter
Jul 12
Full

Hourly Weather History & Observations

Time (PDT) Temp. Dew Point Humidity Pressure Visibility Wind Dir Wind Speed Gust Speed Precip Events Conditions
12:15 AM 64.4 °F 46.4 °F 52% 30.02 in 10.0 mi West 16.1 mph - N/A   Clear
12:35 AM 64.4 °F 46.4 °F 52% 30.02 in 10.0 mi West 18.4 mph - N/A   Clear
12:55 AM 62.6 °F 46.4 °F 55% 30.02 in 8.0 mi West 18.4 mph - N/A   Clear
1:15 AM 62.6 °F 46.4 °F 55% 30.02 in 9.0 mi West 18.4 mph 24.2 mph N/A   Clear
1:35 AM 62.6 °F 44.6 °F 52% 30.02 in 9.0 mi West 13.8 mph 21.9 mph N/A   Clear
1:55 AM 62.6 °F 44.6 °F 52% 30.02 in 9.0 mi West 15.0 mph 19.6 mph N/A   Clear
2:15 AM 60.8 °F 41.0 °F 48% 30.02 in 10.0 mi West 16.1 mph 21.9 mph N/A   Clear
2:55 AM 59.0 °F 41.0 °F 51% 30.01 in 10.0 mi NW 9.2 mph 21.9 mph N/A   Clear
3:15 AM 57.2 °F 41.0 °F 55% 30.01 in 10.0 mi NW 10.4 mph - N/A   Clear
3:35 AM 55.4 °F 41.0 °F 58% 30.01 in 10.0 mi NW 10.4 mph - N/A   Clear
3:55 AM 55.4 °F 41.0 °F 58% 30.00 in 10.0 mi NW 10.4 mph 17.3 mph N/A   Clear
4:15 AM 53.6 °F 39.2 °F 58% 30.00 in 10.0 mi NW 9.2 mph - N/A   Clear
4:35 AM 55.4 °F 39.2 °F 54% 30.00 in 10.0 mi WNW 10.4 mph - N/A   Clear
4:55 AM 57.2 °F 39.2 °F 51% 30.00 in 10.0 mi WNW 9.2 mph 18.4 mph N/A   Clear
5:15 AM 53.6 °F 39.2 °F 58% 30.01 in 10.0 mi NNW 8.1 mph - N/A   Clear
5:35 AM 50.0 °F 39.2 °F 66% 30.01 in 8.0 mi NNW 9.2 mph - N/A   Clear
5:55 AM 53.6 °F 39.2 °F 58% 30.01 in 8.0 mi NW 10.4 mph - N/A   Clear
6:15 AM 55.4 °F 37.4 °F 51% 30.01 in 9.0 mi WNW 9.2 mph - N/A   Clear
6:35 AM 57.2 °F 37.4 °F 48% 30.01 in 8.0 mi NW 11.5 mph - N/A   Clear
6:55 AM 57.2 °F 39.2 °F 51% 30.02 in 9.0 mi NW 10.4 mph - N/A   Clear
7:15 AM 57.2 °F 37.4 °F 48% 30.02 in 8.0 mi NW 12.7 mph - N/A   Clear
7:35 AM 60.8 °F 37.4 °F 42% 30.02 in 9.0 mi NW 10.4 mph - N/A   Clear
7:55 AM 62.6 °F 35.6 °F 37% 30.02 in 9.0 mi WNW 11.5 mph - N/A   Clear
8:15 AM 64.4 °F 33.8 °F 32% 30.02 in 9.0 mi WNW 15.0 mph - N/A   Clear
8:35 AM 66.2 °F 32.0 °F 28% 30.02 in 9.0 mi WNW 16.1 mph - N/A   Clear
8:55 AM 66.2 °F 28.4 °F 24% 30.02 in 9.0 mi WNW 16.1 mph 19.6 mph N/A   Clear
9:15 AM 68.0 °F 28.4 °F 23% 30.02 in 10.0 mi WNW 17.3 mph 23.0 mph N/A   Clear
9:35 AM 68.0 °F 30.2 °F 24% 30.02 in 9.0 mi WNW 18.4 mph - N/A   Clear
9:55 AM 69.8 °F 32.0 °F 25% 30.02 in 9.0 mi NW 19.6 mph 24.2 mph N/A   Clear
10:15 AM 69.8 °F 32.0 °F 25% 30.02 in 9.0 mi NW 21.9 mph 27.6 mph N/A   Clear
10:35 AM 69.8 °F 32.0 °F 25% 30.02 in 8.0 mi NW 18.4 mph 26.5 mph N/A   Clear
10:55 AM 69.8 °F 32.0 °F 25% 30.02 in 9.0 mi NW 20.7 mph 28.8 mph N/A   Clear
11:15 AM 71.6 °F 28.4 °F 20% 30.02 in 9.0 mi NW 19.6 mph 28.8 mph N/A   Clear
11:55 AM 71.6 °F 32.0 °F 23% 30.02 in 8.0 mi WNW 20.7 mph 27.6 mph N/A   Clear
12:15 PM 71.6 °F 32.0 °F 23% 30.02 in 9.0 mi NW 21.9 mph 29.9 mph N/A   Clear
12:35 PM 71.6 °F 33.8 °F 25% 30.02 in 9.0 mi NW 20.7 mph 27.6 mph N/A   Clear
12:55 PM 71.6 °F 33.8 °F 25% 30.02 in 8.0 mi NW 23.0 mph 28.8 mph N/A   Clear
1:15 PM 71.6 °F 35.6 °F 27% 30.02 in 8.0 mi NW 20.7 mph 29.9 mph N/A   Clear
1:35 PM 73.4 °F 35.6 °F 25% 30.01 in 9.0 mi NW 25.3 mph 31.1 mph N/A   Clear
2:15 PM 73.4 °F 35.6 °F 25% 30.01 in 9.0 mi NW 24.2 mph 34.5 mph N/A   Clear
2:55 PM 73.4 °F 33.8 °F 23% 30.00 in 9.0 mi NW 21.9 mph 33.4 mph N/A   Clear
3:55 PM 73.4 °F 33.8 °F 23% 29.99 in 9.0 mi NW 26.5 mph 33.4 mph N/A   Clear
4:15 PM 73.4 °F 32.0 °F 22% 29.99 in 9.0 mi NW 24.2 mph 33.4 mph N/A   Clear
4:35 PM 73.4 °F 32.0 °F 22% 29.99 in 9.0 mi NW 25.3 mph 33.4 mph N/A   Clear
4:55 PM 73.4 °F 32.0 °F 22% 29.98 in 9.0 mi NW 27.6 mph 35.7 mph N/A   Clear
5:15 PM 73.4 °F 33.8 °F 23% 29.98 in 10.0 mi NW 21.9 mph 34.5 mph N/A   Clear
5:35 PM 71.6 °F 32.0 °F 23% 29.98 in 9.0 mi NW 24.2 mph 31.1 mph N/A   Clear
5:55 PM 71.6 °F 32.0 °F 23% 29.97 in 9.0 mi NW 21.9 mph 31.1 mph N/A   Clear
6:15 PM 71.6 °F 32.0 °F 23% 29.97 in 9.0 mi NW 21.9 mph 31.1 mph N/A   Clear
6:35 PM 71.6 °F 32.0 °F 23% 29.97 in 10.0 mi WNW 25.3 mph 29.9 mph N/A   Clear
6:55 PM 69.8 °F 32.0 °F 25% 29.98 in 9.0 mi West 21.9 mph 29.9 mph N/A   Clear
7:15 PM 68.0 °F 32.0 °F 26% 29.98 in 10.0 mi WNW 20.7 mph 26.5 mph N/A   Clear
7:35 PM 68.0 °F 32.0 °F 26% 29.98 in 9.0 mi WNW 20.7 mph 27.6 mph N/A   Clear
7:55 PM 66.2 °F 32.0 °F 28% 29.99 in 10.0 mi WNW 19.6 mph 28.8 mph N/A   Clear
8:15 PM 66.2 °F 32.0 °F 28% 29.98 in 9.0 mi West 15.0 mph 26.5 mph N/A   Clear
8:35 PM 64.4 °F 32.0 °F 30% 29.99 in 10.0 mi West 19.6 mph - N/A   Clear
8:55 PM 64.4 °F 32.0 °F 30% 29.99 in 10.0 mi West 18.4 mph 23.0 mph N/A   Clear
9:15 PM 62.6 °F 32.0 °F 32% 29.99 in 10.0 mi West 18.4 mph 23.0 mph N/A   Clear
9:35 PM 62.6 °F 30.2 °F 30% 30.00 in 10.0 mi WNW 13.8 mph 21.9 mph N/A   Clear
9:55 PM 62.6 °F 28.4 °F 27% 30.00 in 10.0 mi West 16.1 mph 21.9 mph N/A   Clear
10:15 PM 62.6 °F 28.4 °F 27% 30.01 in 10.0 mi WNW 12.7 mph 19.6 mph N/A   Clear
10:35 PM 62.6 °F 24.8 °F 24% 30.01 in 10.0 mi WNW 15.0 mph 19.6 mph N/A   Clear
10:55 PM 62.6 °F 24.8 °F 24% 30.01 in 10.0 mi WNW 16.1 mph - N/A   Clear
11:15 PM 62.6 °F 23.0 °F 22% 30.01 in 10.0 mi WNW 15.0 mph 21.9 mph N/A   Clear
11:35 PM 62.6 °F 19.4 °F 19% 30.01 in 10.0 mi WNW 16.1 mph - N/A   Clear
11:55 PM 60.8 °F 19.4 °F 20% 30.01 in 10.0 mi WNW 15.0 mph 21.9 mph N/A   Clear